createdAt,value
2023-02-11T00:01:51.752Z,100577.44
2023-02-11T00:04:33.467Z,100569.53
2023-02-11T00:07:03.828Z,100570.00
2023-02-11T00:09:51.528Z,100581.38
2023-02-11T00:12:49.220Z,100570.53
2023-02-11T00:15:16.461Z,100570.69
2023-02-11T00:17:49.958Z,100563.50
2023-02-11T00:20:25.612Z,100564.25
2023-02-11T00:23:02.081Z,100565.06
2023-02-11T00:25:37.468Z,100567.38
2023-02-11T00:28:06.516Z,100572.66
2023-02-11T00:33:19.742Z,100575.47
2023-02-11T00:35:49.239Z,100569.69
2023-02-11T00:41:05.661Z,100571.00
2023-02-11T00:46:18.651Z,100574.66
2023-02-11T00:49:11.081Z,100572.16
2023-02-11T00:54:12.617Z,100559.41
2023-02-11T00:59:35.817Z,100564.91
2023-02-11T01:02:02.844Z,100559.16
2023-02-11T01:04:31.910Z,100558.84
2023-02-11T01:06:59.264Z,100564.34
2023-02-11T01:09:31.674Z,100553.63
2023-02-11T01:12:01.432Z,100558.34
2023-02-11T01:14:35.708Z,100550.00
2023-02-11T01:17:07.261Z,100533.81
2023-02-11T01:19:57.733Z,100533.53
2023-02-11T01:22:28.568Z,100536.25
2023-02-11T01:25:00.386Z,100532.06
2023-02-11T01:27:33.053Z,100541.28
2023-02-11T01:30:14.633Z,100552.00
2023-02-11T01:32:54.645Z,100541.78
2023-02-11T01:38:46.238Z,100524.13
2023-02-11T01:41:37.258Z,100527.63
2023-02-11T01:44:49.037Z,100518.63
2023-02-11T01:47:16.426Z,100513.03
2023-02-11T01:49:59.722Z,100519.88
2023-02-11T01:55:36.867Z,100508.81
2023-02-11T01:58:11.258Z,100502.16
2023-02-11T02:00:49.172Z,100491.63
2023-02-11T02:03:40.915Z,100500.59
2023-02-11T02:06:49.365Z,100501.84
2023-02-11T02:09:33.688Z,100505.50
2023-02-11T02:12:13.269Z,100498.53
2023-02-11T02:14:48.435Z,100497.03
2023-02-11T02:21:09.033Z,100489.19
2023-02-11T02:24:15.616Z,100482.03
2023-02-11T02:30:32.968Z,100461.22
2023-02-11T02:33:28.380Z,100464.59
2023-02-11T02:36:53.606Z,100463.66
2023-02-11T02:39:34.879Z,100472.16
2023-02-11T02:42:16.098Z,100466.72
2023-02-11T02:44:49.747Z,100459.63
2023-02-11T02:47:47.682Z,100453.22
2023-02-11T02:50:48.566Z,100455.34
2023-02-11T02:56:56.497Z,100457.78
2023-02-11T03:02:35.815Z,100459.22
2023-02-11T03:05:46.207Z,100460.97
2023-02-11T03:08:36.008Z,100462.25
2023-02-11T03:11:09.005Z,100472.13
2023-02-11T03:16:25.754Z,100466.91
2023-02-11T03:19:25.691Z,100458.06
2023-02-11T03:22:07.399Z,100465.66
2023-02-11T03:24:51.157Z,100457.16
2023-02-11T03:28:24.764Z,100462.72
2023-02-11T03:31:47.341Z,100444.56
2023-02-11T03:35:05.263Z,100433.97
2023-02-11T03:37:53.733Z,100433.78
2023-02-11T03:40:50.569Z,100432.78
2023-02-11T03:46:12.257Z,100427.38
2023-02-11T03:48:52.511Z,100434.94
2023-02-11T03:51:32.057Z,100444.47
2023-02-11T03:54:12.322Z,100448.75
2023-02-11T03:57:06.907Z,100447.22
2023-02-11T03:59:58.513Z,100447.75
2023-02-11T04:05:29.194Z,100428.28
2023-02-11T04:08:02.989Z,100431.88
2023-02-11T04:10:47.812Z,100425.44
2023-02-11T04:13:15.645Z,100409.22
2023-02-11T04:16:01.860Z,100418.59
2023-02-11T04:19:06.727Z,100411.13
2023-02-11T04:21:46.740Z,100397.88
2023-02-11T04:24:30.872Z,100403.75
2023-02-11T04:27:08.558Z,100383.81
2023-02-11T04:32:06.014Z,100391.56
2023-02-11T04:37:08.526Z,100380.13
2023-02-11T04:39:36.115Z,100369.19
2023-02-11T04:42:03.243Z,100365.13
2023-02-11T04:47:08.778Z,100387.78
2023-02-11T04:52:09.880Z,100369.97
2023-02-11T04:57:19.679Z,100368.31
2023-02-11T04:59:51.151Z,100385.34
2023-02-11T05:02:19.702Z,100389.31
2023-02-11T05:04:47.194Z,100395.72
2023-02-11T05:07:19.885Z,100403.19
2023-02-11T05:09:46.882Z,100402.63
2023-02-11T05:12:14.273Z,100391.38
2023-02-11T05:17:12.486Z,100384.22
2023-02-11T05:19:52.006Z,100380.16
2023-02-11T05:24:50.300Z,100354.44
2023-02-11T05:27:17.126Z,100349.25
2023-02-11T05:32:11.169Z,100353.34
2023-02-11T05:37:10.127Z,100368.31
2023-02-11T05:42:07.834Z,100332.41
2023-02-11T05:44:40.928Z,100362.19
2023-02-11T05:47:10.227Z,100359.78
2023-02-11T05:52:08.461Z,100358.28
2023-02-11T05:54:35.312Z,100355.00
2023-02-11T05:57:05.360Z,100356.94
2023-02-11T05:59:35.300Z,100354.75
2023-02-11T06:02:02.295Z,100362.97
2023-02-11T06:04:28.926Z,100372.31
2023-02-11T06:06:55.492Z,100368.94
2023-02-11T06:09:22.178Z,100360.53
2023-02-11T06:11:48.780Z,100353.41
2023-02-11T06:14:17.193Z,100352.59
2023-02-11T06:19:10.793Z,100351.50
2023-02-11T06:21:43.913Z,100344.63
2023-02-11T06:24:11.649Z,100341.09
2023-02-11T06:26:38.288Z,100343.56
2023-02-11T06:29:04.868Z,100347.13
2023-02-11T06:31:31.598Z,100337.53
2023-02-11T06:33:59.253Z,100330.34
2023-02-11T06:36:25.914Z,100330.22
2023-02-11T06:41:20.704Z,100335.00
2023-02-11T06:43:48.322Z,100347.66
2023-02-11T06:46:15.673Z,100363.00
2023-02-11T06:51:10.602Z,100373.41
2023-02-11T06:53:40.698Z,100376.72
2023-02-11T06:56:09.846Z,100384.09
2023-02-11T07:01:11.891Z,100385.19
2023-02-11T07:06:08.127Z,100371.66
2023-02-11T07:08:36.132Z,100384.34
2023-02-11T07:11:09.909Z,100379.03
2023-02-11T07:13:36.589Z,100389.09
2023-02-11T07:16:12.013Z,100382.28
2023-02-11T07:18:39.286Z,100387.19
2023-02-11T07:21:07.429Z,100388.25
2023-02-11T07:23:35.710Z,100371.28
2023-02-11T07:26:13.616Z,100375.78
2023-02-11T07:28:41.121Z,100367.63
2023-02-11T07:31:13.874Z,100370.50
2023-02-11T07:33:41.169Z,100367.53
2023-02-11T07:36:11.764Z,100360.50
2023-02-11T07:38:38.729Z,100365.41
2023-02-11T07:41:08.223Z,100367.34
2023-02-11T07:43:35.633Z,100373.59
2023-02-11T07:46:09.505Z,100386.34
2023-02-11T07:48:38.280Z,100396.28
2023-02-11T07:51:09.401Z,100405.50
2023-02-11T07:53:36.576Z,100406.72
2023-02-11T07:56:04.892Z,100403.97
2023-02-11T07:58:31.818Z,100407.53
2023-02-11T08:01:06.505Z,100411.16
2023-02-11T08:03:34.639Z,100426.41
2023-02-11T08:06:12.882Z,100419.66
2023-02-11T08:08:40.110Z,100419.25
2023-02-11T08:11:12.184Z,100415.94
2023-02-11T08:13:39.310Z,100409.56
2023-02-11T08:16:07.223Z,100402.03
2023-02-11T08:18:34.889Z,100398.84
2023-02-11T08:21:09.590Z,100406.63
2023-02-11T08:23:37.484Z,100399.28
2023-02-11T08:26:06.075Z,100399.53
2023-02-11T08:28:36.341Z,100394.88
2023-02-11T08:31:16.230Z,100392.34
2023-02-11T08:33:43.397Z,100396.34
2023-02-11T08:36:18.558Z,100397.75
2023-02-11T08:38:45.462Z,100395.69
2023-02-11T08:41:14.916Z,100391.03
2023-02-11T08:43:45.489Z,100386.97
2023-02-11T08:46:16.258Z,100385.47
2023-02-11T08:48:43.615Z,100389.81
2023-02-11T08:51:14.606Z,100392.53
2023-02-11T08:53:41.368Z,100398.03
2023-02-11T08:56:12.880Z,100390.88
2023-02-11T08:58:40.629Z,100392.53
2023-02-11T09:01:16.413Z,100382.59
2023-02-11T09:03:43.126Z,100378.75
2023-02-11T09:06:10.879Z,100381.09
2023-02-11T09:08:39.480Z,100381.09
2023-02-11T09:11:06.362Z,100378.72
2023-02-11T09:13:33.494Z,100383.00
2023-02-11T09:18:28.546Z,100369.88
2023-02-11T09:21:06.436Z,100373.63
2023-02-11T09:23:36.187Z,100367.25
2023-02-11T09:26:17.109Z,100390.09
2023-02-11T09:28:45.037Z,100379.97
2023-02-11T09:31:14.847Z,100384.94
2023-02-11T09:33:47.708Z,100388.72
2023-02-11T09:36:20.736Z,100381.22
2023-02-11T09:38:48.015Z,100396.16
2023-02-11T09:41:29.446Z,100401.34
2023-02-11T09:43:59.076Z,100391.84
2023-02-11T09:46:27.691Z,100395.41
2023-02-11T09:51:35.761Z,100394.25
2023-02-11T09:54:15.436Z,100392.66
2023-02-11T09:56:44.841Z,100387.63
2023-02-11T09:59:16.226Z,100399.66
2023-02-11T10:05:06.667Z,100394.53
2023-02-11T10:10:22.668Z,100403.47
2023-02-11T10:13:12.152Z,100396.28
2023-02-11T10:16:03.781Z,100398.22
2023-02-11T10:18:48.959Z,100407.91
2023-02-11T10:21:36.942Z,100412.69
2023-02-11T10:24:10.001Z,100413.63
2023-02-11T10:26:38.537Z,100412.69
2023-02-11T10:29:34.041Z,100416.53
2023-02-11T10:32:07.410Z,100409.72
2023-02-11T10:34:39.799Z,100415.84
2023-02-11T10:37:10.286Z,100422.22
2023-02-11T10:39:40.008Z,100413.78
2023-02-11T10:42:15.078Z,100421.03
2023-02-11T10:47:28.833Z,100401.94
2023-02-11T10:49:55.988Z,100403.19
2023-02-11T10:52:25.440Z,100400.88
2023-02-11T11:00:20.320Z,100407.69
2023-02-11T11:02:54.810Z,100407.00
2023-02-11T11:05:48.669Z,100389.47
2023-02-11T11:08:16.131Z,100386.94
2023-02-11T11:10:47.684Z,100384.84
2023-02-11T11:13:33.061Z,100381.59
2023-02-11T11:16:18.065Z,100388.03
2023-02-11T11:18:47.359Z,100389.13
2023-02-11T11:21:29.023Z,100397.34
2023-02-11T11:24:00.590Z,100394.06
2023-02-11T11:26:50.201Z,100394.59
2023-02-11T11:29:21.666Z,100402.06
2023-02-11T11:31:54.613Z,100394.31
2023-02-11T11:34:35.053Z,100401.97
2023-02-11T11:42:31.001Z,100402.47
2023-02-11T11:45:04.689Z,100392.97
2023-02-11T11:47:43.550Z,100402.63
2023-02-11T11:50:50.579Z,100398.66
2023-02-11T11:53:33.316Z,100395.16
2023-02-11T11:56:09.090Z,100389.53
2023-02-11T11:58:39.431Z,100387.16
2023-02-11T12:01:21.491Z,100398.84
2023-02-11T12:04:17.478Z,100395.59
2023-02-11T12:07:08.925Z,100393.66
2023-02-11T12:10:06.975Z,100391.03
2023-02-11T12:12:49.545Z,100396.38
2023-02-11T12:15:34.508Z,100389.00
2023-02-11T12:18:08.834Z,100390.91
2023-02-11T12:21:14.536Z,100394.63
2023-02-11T12:24:01.298Z,100386.06
2023-02-11T12:29:42.136Z,100370.47
2023-02-11T12:32:27.603Z,100376.44
2023-02-11T12:35:32.657Z,100362.19
2023-02-11T12:38:27.919Z,100362.03
2023-02-11T12:41:39.887Z,100367.22
2023-02-11T12:44:13.226Z,100363.84
2023-02-11T12:47:01.874Z,100355.50
2023-02-11T12:49:46.352Z,100361.78
2023-02-11T12:52:56.890Z,100364.34
2023-02-11T12:55:37.234Z,100363.00
2023-02-11T12:58:25.412Z,100354.84
2023-02-11T13:01:05.759Z,100351.69
2023-02-11T13:03:43.494Z,100353.75
2023-02-11T13:06:18.501Z,100346.00
2023-02-11T13:14:35.329Z,100335.00
2023-02-11T13:17:24.688Z,100337.72
2023-02-11T13:19:59.739Z,100333.47
2023-02-11T13:22:44.668Z,100334.03
2023-02-11T13:25:45.638Z,100331.19
2023-02-11T13:28:24.220Z,100329.72
2023-02-11T13:33:47.454Z,100332.38
2023-02-11T13:36:33.499Z,100337.16
2023-02-11T13:39:03.778Z,100329.78
2023-02-11T13:41:50.927Z,100327.47
2023-02-11T13:44:27.959Z,100326.91
2023-02-11T13:47:06.931Z,100324.84
2023-02-11T13:49:49.689Z,100339.47
2023-02-11T13:52:45.515Z,100334.44
2023-02-11T13:55:27.530Z,100336.47
2023-02-11T13:58:06.245Z,100322.44
2023-02-11T14:00:52.203Z,100334.03
2023-02-11T14:04:33.520Z,100336.22
2023-02-11T14:07:48.646Z,100337.28
2023-02-11T14:10:43.477Z,100337.84
2023-02-11T14:13:37.230Z,100338.94
2023-02-11T14:16:17.082Z,100340.00
2023-02-11T14:18:47.504Z,100337.84
2023-02-11T14:21:25.905Z,100338.38
2023-02-11T14:26:55.646Z,100334.16
2023-02-11T14:29:36.819Z,100331.28
2023-02-11T14:32:21.939Z,100337.25
2023-02-11T14:35:31.522Z,100333.59
2023-02-11T14:38:12.822Z,100335.38
2023-02-11T14:41:06.939Z,100344.25
2023-02-11T14:43:50.372Z,100341.13
2023-02-11T14:46:20.221Z,100340.84
2023-02-11T14:48:50.828Z,100343.44
2023-02-11T14:51:28.125Z,100348.50
2023-02-11T14:54:09.505Z,100344.81
2023-02-11T14:56:37.056Z,100338.72
2023-02-11T14:59:24.790Z,100331.19
2023-02-11T15:01:59.316Z,100342.09
2023-02-11T15:04:34.696Z,100337.47
2023-02-11T15:07:09.555Z,100344.13
2023-02-11T15:09:42.802Z,100347.69
2023-02-11T15:12:44.659Z,100342.22
2023-02-11T15:15:34.831Z,100359.38
2023-02-11T15:18:04.395Z,100358.03
2023-02-11T15:20:34.618Z,100358.28
2023-02-11T15:28:25.651Z,100353.78
2023-02-11T15:31:13.284Z,100348.47
2023-02-11T15:33:40.937Z,100351.47
2023-02-11T15:36:21.483Z,100359.78
2023-02-11T15:39:32.634Z,100359.09
2023-02-11T15:42:34.073Z,100364.28
2023-02-11T15:50:41.571Z,100358.94
2023-02-11T15:53:47.775Z,100357.44
2023-02-11T15:56:25.639Z,100365.63
2023-02-11T15:58:57.543Z,100370.66
2023-02-11T16:01:40.964Z,100363.72
2023-02-11T16:04:18.032Z,100366.97
2023-02-11T16:06:53.722Z,100366.28
2023-02-11T16:09:26.760Z,100375.28
2023-02-11T16:14:34.825Z,100380.59
2023-02-11T16:17:15.635Z,100377.88
2023-02-11T16:19:48.850Z,100379.53
2023-02-11T16:22:23.162Z,100381.81
2023-02-11T16:24:53.280Z,100377.34
2023-02-11T16:27:31.750Z,100387.94
2023-02-11T16:32:55.643Z,100393.50
2023-02-11T16:35:25.729Z,100388.22
2023-02-11T16:37:52.597Z,100392.97
2023-02-11T16:40:19.619Z,100398.28
2023-02-11T16:42:46.706Z,100394.19
2023-02-11T16:45:16.198Z,100393.53
2023-02-11T16:47:47.590Z,100395.97
2023-02-11T16:50:31.664Z,100394.34
2023-02-11T16:53:02.325Z,100395.84
2023-02-11T16:55:29.179Z,100403.19
2023-02-11T16:57:58.505Z,100395.44
2023-02-11T17:00:27.919Z,100396.38
2023-02-11T17:02:57.617Z,100406.88
2023-02-11T17:05:30.208Z,100414.03
2023-02-11T17:08:03.773Z,100402.09
2023-02-11T17:10:55.922Z,100405.63
2023-02-11T17:13:27.300Z,100416.38
2023-02-11T17:16:12.602Z,100425.19
2023-02-11T17:27:54.790Z,100418.38
2023-02-11T17:30:49.623Z,100422.03
2023-02-11T17:33:22.079Z,100428.59
2023-02-11T17:35:48.984Z,100413.22
2023-02-11T17:38:16.216Z,100416.19
2023-02-11T17:40:45.202Z,100412.94
2023-02-11T17:43:12.014Z,100418.66
2023-02-11T17:45:44.818Z,100412.34
2023-02-11T17:48:11.893Z,100413.88
2023-02-11T17:50:41.432Z,100417.13
2023-02-11T17:55:35.834Z,100421.63
2023-02-11T17:58:05.782Z,100422.97
2023-02-11T18:00:35.567Z,100419.03
2023-02-11T18:05:41.221Z,100424.75
2023-02-11T18:08:10.537Z,100423.50
2023-02-11T18:10:38.187Z,100421.34
2023-02-11T18:13:05.269Z,100423.50
2023-02-11T18:15:33.678Z,100419.41
2023-02-11T18:18:00.677Z,100424.31
2023-02-11T18:20:27.584Z,100434.00
2023-02-11T18:22:54.456Z,100426.50
2023-02-11T18:25:22.413Z,100429.09
2023-02-11T18:27:49.130Z,100431.78
2023-02-11T18:30:19.450Z,100427.44
2023-02-11T18:32:46.171Z,100438.84
2023-02-11T18:35:15.912Z,100438.03
2023-02-11T18:37:43.071Z,100432.75
2023-02-11T18:40:11.993Z,100433.03
2023-02-11T18:42:39.229Z,100445.81
2023-02-11T18:45:09.479Z,100444.44
2023-02-11T18:47:37.891Z,100441.84
2023-02-11T18:52:48.185Z,100446.38
2023-02-11T18:55:17.079Z,100452.34
2023-02-11T18:57:43.851Z,100456.59
2023-02-11T19:00:11.163Z,100452.22
2023-02-11T19:02:44.598Z,100453.75
2023-02-11T19:05:11.515Z,100457.69
2023-02-11T19:07:38.332Z,100466.09
2023-02-11T19:12:33.444Z,100467.59
2023-02-11T19:15:00.878Z,100465.00
2023-02-11T19:17:32.467Z,100460.25
2023-02-11T19:20:00.053Z,100465.41
2023-02-11T19:22:27.079Z,100470.88
2023-02-11T19:24:54.057Z,100476.84
2023-02-11T19:27:24.865Z,100487.16
2023-02-11T19:29:57.793Z,100478.06
2023-02-11T19:32:28.275Z,100480.09
2023-02-11T19:35:00.675Z,100478.72
2023-02-11T19:37:27.824Z,100477.53
2023-02-11T19:39:58.939Z,100478.34
2023-02-11T19:42:30.673Z,100480.09
2023-02-11T19:45:00.712Z,100483.78
2023-02-11T19:47:28.050Z,100485.00
2023-02-11T19:49:57.637Z,100491.81
2023-02-11T19:52:24.660Z,100489.91
2023-02-11T19:54:54.168Z,100492.63
2023-02-11T19:57:29.327Z,100501.72
2023-02-11T19:59:59.456Z,100504.56
2023-02-11T20:02:29.533Z,100499.28
2023-02-11T20:04:59.636Z,100505.06
2023-02-11T20:07:30.416Z,100503.03
2023-02-11T20:09:59.534Z,100504.13
2023-02-11T20:12:26.354Z,100499.47
2023-02-11T20:14:55.261Z,100499.22
2023-02-11T20:17:23.503Z,100497.41
2023-02-11T20:19:50.589Z,100492.50
2023-02-11T20:22:17.543Z,100482.56
2023-02-11T20:24:44.917Z,100487.19
2023-02-11T20:27:14.279Z,100486.47
2023-02-11T20:29:42.217Z,100490.94
2023-02-11T20:32:11.550Z,100496.75
2023-02-11T20:34:38.640Z,100490.69
2023-02-11T20:39:40.960Z,100502.09
2023-02-11T20:42:11.861Z,100494.34
2023-02-11T20:59:21.211Z,100520.59
2023-02-11T21:01:50.791Z,100525.50
2023-02-11T21:09:25.336Z,100533.00
2023-02-11T21:14:22.303Z,100543.91
2023-02-11T21:16:49.593Z,100537.91
2023-02-11T21:19:17.031Z,100534.91
2023-02-11T21:21:44.623Z,100530.56
2023-02-11T21:24:12.098Z,100529.47
2023-02-11T21:26:39.547Z,100522.97
2023-02-11T21:31:36.030Z,100540.00
2023-02-11T21:34:03.342Z,100548.56
2023-02-11T21:36:30.371Z,100545.28
2023-02-11T21:38:57.671Z,100547.31
2023-02-11T21:41:25.000Z,100550.19
2023-02-11T21:43:52.589Z,100544.19
2023-02-11T21:46:20.699Z,100543.38
2023-02-11T21:48:48.389Z,100541.34
2023-02-11T21:51:26.104Z,100549.38
2023-02-11T21:53:57.101Z,100544.16
2023-02-11T21:56:26.331Z,100551.91
2023-02-11T21:58:54.725Z,100543.22
2023-02-11T22:01:31.014Z,100538.31
2023-02-11T22:06:33.797Z,100532.81
2023-02-11T22:11:35.725Z,100544.22
2023-02-11T22:14:02.937Z,100537.53
2023-02-11T22:16:30.695Z,100528.88
2023-02-11T22:18:58.719Z,100536.47
2023-02-11T22:21:26.296Z,100540.06
2023-02-11T22:23:54.707Z,100548.88
2023-02-11T22:26:25.952Z,100550.41
2023-02-11T22:28:53.734Z,100541.97
2023-02-11T22:31:23.925Z,100554.97
2023-02-11T22:33:51.034Z,100559.47
2023-02-11T22:36:23.867Z,100562.28
2023-02-11T22:38:54.241Z,100553.47
2023-02-11T22:41:23.180Z,100559.66
2023-02-11T22:43:50.201Z,100551.34
2023-02-11T22:46:19.591Z,100558.59
2023-02-11T22:48:48.984Z,100554.34
2023-02-11T22:51:19.507Z,100559.28
2023-02-11T22:53:55.015Z,100555.50
2023-02-11T22:56:22.044Z,100569.22
2023-02-11T22:58:50.070Z,100566.38
2023-02-11T23:01:17.491Z,100564.63
2023-02-11T23:03:45.191Z,100561.63
2023-02-11T23:06:12.553Z,100558.84
2023-02-11T23:08:43.232Z,100560.38
2023-02-11T23:11:16.658Z,100563.94
2023-02-11T23:13:46.198Z,100568.03
2023-02-11T23:16:17.215Z,100564.06
2023-02-11T23:18:47.666Z,100564.81
2023-02-11T23:21:17.776Z,100570.81
2023-02-11T23:23:45.473Z,100565.09
2023-02-11T23:26:14.283Z,100555.34
2023-02-11T23:28:41.914Z,100567.19
2023-02-11T23:31:29.264Z,100566.38
2023-02-11T23:33:56.750Z,100561.72
2023-02-11T23:36:25.969Z,100565.09
2023-02-11T23:38:52.668Z,100569.06
2023-02-11T23:41:20.171Z,100573.03
2023-02-11T23:43:54.817Z,100570.53
2023-02-11T23:46:23.341Z,100579.94
2023-02-11T23:48:51.301Z,100579.66
2023-02-11T23:51:19.076Z,100569.22
2023-02-11T23:53:46.251Z,100569.03
2023-02-11T23:56:22.900Z,100572.53
2023-02-11T23:58:52.046Z,100574.06
